createdAt,value
2023-04-06T00:01:57.123Z,5.56
2023-04-06T00:04:24.975Z,5.51
2023-04-06T00:06:52.797Z,5.39
2023-04-06T00:09:22.036Z,5.35
2023-04-06T00:11:49.890Z,5.35
2023-04-06T00:14:18.621Z,5.37
2023-04-06T00:16:46.585Z,5.29
2023-04-06T00:19:14.335Z,5.31
2023-04-06T00:21:42.325Z,5.29
2023-04-06T00:24:10.396Z,5.24
2023-04-06T00:26:39.631Z,5.21
2023-04-06T00:29:07.842Z,5.17
2023-04-06T00:31:35.992Z,5.06
2023-04-06T00:34:03.863Z,4.97
2023-04-06T00:36:31.697Z,5.05
2023-04-06T00:38:59.515Z,4.99
2023-04-06T00:41:27.391Z,4.83
2023-04-06T00:43:57.219Z,4.95
2023-04-06T00:46:25.230Z,4.95
2023-04-06T00:48:53.115Z,4.83
2023-04-06T00:51:21.020Z,4.83
2023-04-06T00:53:48.838Z,4.82
2023-04-06T00:56:16.672Z,4.74
2023-04-06T00:58:44.488Z,4.59
2023-04-06T01:01:13.759Z,4.53
2023-04-06T01:03:43.227Z,4.52
2023-04-06T01:06:11.094Z,4.11
2023-04-06T01:08:38.985Z,4.40
2023-04-06T01:11:06.810Z,4.54
2023-04-06T01:13:34.700Z,4.38
2023-04-06T01:16:02.725Z,4.45
2023-04-06T01:18:32.022Z,4.43
2023-04-06T01:21:00.729Z,4.51
2023-04-06T01:23:30.005Z,4.53
2023-04-06T01:25:57.764Z,4.50
2023-04-06T01:28:25.682Z,4.36
2023-04-06T01:30:53.626Z,4.20
2023-04-06T01:33:21.420Z,4.20
2023-04-06T01:35:49.211Z,4.12
2023-04-06T01:38:17.236Z,4.17
2023-04-06T01:40:46.517Z,4.25
2023-04-06T01:43:14.432Z,4.26
2023-04-06T01:45:42.307Z,4.24
2023-04-06T01:48:10.474Z,4.24
2023-04-06T01:50:38.361Z,4.24
2023-04-06T01:53:06.315Z,4.25
2023-04-06T01:55:34.099Z,4.26
2023-04-06T01:58:03.252Z,4.28
2023-04-06T02:00:31.341Z,4.29
2023-04-06T02:02:59.385Z,4.38
2023-04-06T02:05:27.428Z,4.40
2023-04-06T02:07:55.236Z,4.30
2023-04-06T02:10:23.034Z,4.38
2023-04-06T02:12:50.974Z,4.37
2023-04-06T02:15:20.181Z,4.29
2023-04-06T02:17:47.982Z,4.26
2023-04-06T02:20:15.934Z,4.32
2023-04-06T02:22:43.702Z,4.34
2023-04-06T02:25:11.549Z,4.32
2023-04-06T02:27:39.383Z,4.28
2023-04-06T02:30:08.535Z,4.31
2023-04-06T02:32:37.805Z,4.24
2023-04-06T02:35:06.376Z,4.20
2023-04-06T02:37:34.165Z,4.18
2023-04-06T02:40:01.996Z,4.17
2023-04-06T02:42:30.338Z,4.17
2023-04-06T02:44:58.159Z,4.27
2023-04-06T02:47:26.007Z,4.08
2023-04-06T02:49:55.190Z,4.23
2023-04-06T02:52:22.998Z,4.29
2023-04-06T02:54:52.100Z,4.32
2023-04-06T02:57:20.099Z,4.31
2023-04-06T02:59:48.315Z,4.33
2023-04-06T03:02:16.211Z,4.29
2023-04-06T03:04:44.309Z,4.17
2023-04-06T03:07:13.507Z,4.16
2023-04-06T03:09:41.289Z,4.16
2023-04-06T03:12:10.200Z,4.17
2023-04-06T03:14:38.254Z,4.13
2023-04-06T03:17:06.058Z,4.09
2023-04-06T03:19:33.868Z,4.17
2023-04-06T03:22:01.684Z,4.15
2023-04-06T03:24:30.823Z,4.05
2023-04-06T03:26:58.583Z,4.01
2023-04-06T03:29:26.402Z,3.99
2023-04-06T03:31:54.208Z,3.97
2023-04-06T03:34:22.025Z,3.96
2023-04-06T03:36:59.533Z,3.92
2023-04-06T03:39:36.255Z,3.94
2023-04-06T03:42:04.199Z,3.91
2023-04-06T03:44:31.980Z,3.83
2023-04-06T03:46:59.789Z,3.85
2023-04-06T03:49:27.605Z,3.81
2023-04-06T03:51:55.420Z,3.81
2023-04-06T03:54:23.172Z,3.82
2023-04-06T03:56:52.335Z,3.79
2023-04-06T03:59:20.472Z,3.70
2023-04-06T04:01:48.310Z,3.68
2023-04-06T04:04:16.400Z,3.76
2023-04-06T04:06:44.227Z,3.71
2023-04-06T04:09:12.047Z,3.57
2023-04-06T04:11:39.919Z,3.69
2023-04-06T04:14:09.104Z,3.76
2023-04-06T04:16:37.077Z,3.77
2023-04-06T04:19:04.998Z,3.72
2023-04-06T04:21:33.817Z,3.85
2023-04-06T04:24:01.625Z,3.93
2023-04-06T04:26:29.366Z,3.98
2023-04-06T04:28:57.236Z,4.06
2023-04-06T04:31:26.469Z,4.01
2023-04-06T04:33:54.369Z,4.01
2023-04-06T04:36:22.191Z,4.01
2023-04-06T04:38:50.276Z,4.04
2023-04-06T04:41:18.127Z,3.96
2023-04-06T04:43:46.582Z,3.92
2023-04-06T04:46:14.487Z,3.80
2023-04-06T04:48:43.887Z,3.87
2023-04-06T04:51:11.769Z,3.86
2023-04-06T04:53:39.598Z,3.89
2023-04-06T04:56:07.583Z,3.90
2023-04-06T04:58:35.384Z,3.94
2023-04-06T05:01:03.289Z,4.04
2023-04-06T05:03:31.497Z,4.04
2023-04-06T05:06:01.034Z,3.98
2023-04-06T05:08:28.896Z,4.06
2023-04-06T05:10:56.826Z,4.00
2023-04-06T05:13:24.769Z,3.96
2023-04-06T05:15:52.806Z,4.16
2023-04-06T05:18:20.814Z,4.23
2023-04-06T05:20:50.877Z,4.24
2023-04-06T05:23:20.026Z,4.13
2023-04-06T05:25:47.848Z,4.24
2023-04-06T05:28:16.907Z,4.35
2023-04-06T05:30:44.946Z,4.45
2023-04-06T05:33:12.961Z,4.40
2023-04-06T05:35:40.847Z,4.55
2023-04-06T05:38:10.608Z,4.62
2023-04-06T05:40:41.887Z,4.73
2023-04-06T05:43:09.796Z,4.82
2023-04-06T05:45:37.674Z,4.92
2023-04-06T05:48:05.763Z,5.03
2023-04-06T05:50:33.573Z,5.19
2023-04-06T05:53:01.414Z,5.21
2023-04-06T05:55:29.793Z,5.32
2023-04-06T05:57:59.019Z,5.24
2023-04-06T06:00:27.305Z,5.25
2023-04-06T06:02:55.211Z,5.43
2023-04-06T06:05:23.141Z,5.66
2023-04-06T06:07:51.142Z,5.73
2023-04-06T06:10:19.035Z,5.90
2023-04-06T06:12:47.100Z,5.77
2023-04-06T06:15:16.593Z,6.04
2023-04-06T06:17:44.544Z,5.92
2023-04-06T06:20:13.253Z,5.96
2023-04-06T06:22:41.910Z,5.86
2023-04-06T06:25:10.217Z,5.84
2023-04-06T06:27:38.037Z,5.96
2023-04-06T06:30:07.241Z,6.12
2023-04-06T06:32:36.510Z,6.21
2023-04-06T06:35:04.742Z,6.51
2023-04-06T06:37:32.590Z,6.54
2023-04-06T06:40:00.458Z,6.57
2023-04-06T06:42:28.295Z,6.47
2023-04-06T06:44:56.412Z,6.72
2023-04-06T06:47:24.224Z,6.77
2023-04-06T06:49:53.441Z,6.84
2023-04-06T06:52:21.239Z,6.83
2023-04-06T06:54:49.014Z,6.72
2023-04-06T06:57:16.952Z,6.88
2023-04-06T06:59:44.769Z,7.07
2023-04-06T07:02:12.753Z,7.09
2023-04-06T07:04:40.669Z,7.36
2023-04-06T07:07:10.278Z,7.48
2023-04-06T07:09:38.160Z,7.50
2023-04-06T07:12:06.063Z,7.46
2023-04-06T07:14:34.213Z,7.51
2023-04-06T07:17:02.109Z,7.56
2023-04-06T07:19:30.116Z,7.56
2023-04-06T07:21:57.980Z,7.79
2023-04-06T07:24:27.606Z,8.07
2023-04-06T07:26:55.547Z,8.21
2023-04-06T07:29:24.044Z,8.31
2023-04-06T07:31:51.878Z,8.35
2023-04-06T07:34:19.728Z,8.20
2023-04-06T07:36:47.499Z,8.46
2023-04-06T07:39:15.314Z,8.53
2023-04-06T07:41:44.596Z,8.52
2023-04-06T07:44:12.460Z,8.62
2023-04-06T07:46:40.478Z,8.55
2023-04-06T07:49:08.404Z,8.73
2023-04-06T07:51:38.002Z,8.73
2023-04-06T07:54:06.362Z,9.05
2023-04-06T07:56:34.478Z,9.20
2023-04-06T07:59:04.038Z,9.22
2023-04-06T08:01:31.940Z,9.39
2023-04-06T08:03:59.985Z,9.38
2023-04-06T08:06:27.947Z,9.66
2023-04-06T08:08:56.311Z,9.47
2023-04-06T08:11:24.227Z,9.78
2023-04-06T08:13:52.053Z,9.68
2023-04-06T08:16:21.387Z,9.74
2023-04-06T08:18:49.302Z,9.86
2023-04-06T08:21:17.093Z,10.00
2023-04-06T08:23:44.961Z,10.06
2023-04-06T08:26:12.895Z,10.42
2023-04-06T08:28:40.717Z,10.47
2023-04-06T08:31:08.795Z,10.56
2023-04-06T08:33:40.059Z,10.78
2023-04-06T08:36:12.880Z,10.79
2023-04-06T08:38:41.067Z,10.81
2023-04-06T08:41:10.395Z,11.15
2023-04-06T08:43:44.789Z,11.15
2023-04-06T08:46:13.303Z,11.15
2023-04-06T08:48:43.386Z,11.65
2023-04-06T08:51:11.639Z,11.13
2023-04-06T08:53:40.203Z,11.43
2023-04-06T08:56:08.334Z,12.04
2023-04-06T08:58:38.993Z,12.12
2023-04-06T09:01:09.877Z,12.38
2023-04-06T09:03:41.352Z,12.82
2023-04-06T09:06:12.167Z,12.96
2023-04-06T09:08:41.980Z,13.18
2023-04-06T09:11:10.163Z,12.97
2023-04-06T09:13:47.400Z,13.20
2023-04-06T09:16:15.508Z,13.49
2023-04-06T09:18:43.657Z,13.83
2023-04-06T09:21:13.338Z,14.07
2023-04-06T09:23:41.605Z,14.34
2023-04-06T09:26:11.032Z,14.49
2023-04-06T09:28:49.277Z,14.51
2023-04-06T09:31:17.960Z,14.21
2023-04-06T09:33:47.497Z,14.55
2023-04-06T09:36:17.493Z,14.61
2023-04-06T09:38:56.778Z,15.00
2023-04-06T09:41:26.243Z,15.47
2023-04-06T09:43:54.581Z,15.61
2023-04-06T09:46:24.145Z,15.54
2023-04-06T09:48:52.250Z,15.82
2023-04-06T09:51:22.405Z,15.67
2023-04-06T09:53:54.711Z,15.32
2023-04-06T09:56:26.777Z,15.43
2023-04-06T09:58:59.035Z,15.18
2023-04-06T10:01:28.964Z,15.73
2023-04-06T10:03:58.929Z,16.24
2023-04-06T10:06:29.637Z,16.03
2023-04-06T10:08:58.994Z,16.38
2023-04-06T10:11:27.039Z,16.22
2023-04-06T10:13:54.853Z,15.63
2023-04-06T10:16:23.183Z,15.71
2023-04-06T10:18:54.411Z,16.02
2023-04-06T10:21:25.903Z,16.23
2023-04-06T10:23:58.111Z,16.62
2023-04-06T10:26:26.100Z,16.56
2023-04-06T10:28:55.211Z,16.37
2023-04-06T10:31:27.173Z,16.24
2023-04-06T10:33:58.670Z,15.95
2023-04-06T10:36:28.552Z,16.23
2023-04-06T10:38:59.151Z,16.47
2023-04-06T10:41:34.287Z,16.66
2023-04-06T10:44:02.382Z,16.69
2023-04-06T10:46:31.514Z,16.61
2023-04-06T10:48:59.626Z,16.53
2023-04-06T10:51:29.515Z,16.69
2023-04-06T10:53:59.121Z,17.04
2023-04-06T10:56:29.089Z,17.18
2023-04-06T10:58:58.010Z,17.61
2023-04-06T11:01:27.533Z,17.36
2023-04-06T11:03:56.810Z,16.92
2023-04-06T11:06:26.399Z,16.95
2023-04-06T11:08:54.708Z,17.18
2023-04-06T11:11:27.274Z,17.76
2023-04-06T11:13:56.551Z,17.73
2023-04-06T11:16:25.836Z,17.56
2023-04-06T11:18:56.602Z,17.61
2023-04-06T11:21:35.753Z,17.84
2023-04-06T11:24:08.476Z,17.81
2023-04-06T11:26:41.347Z,17.30
2023-04-06T11:29:09.623Z,17.89
2023-04-06T11:31:42.254Z,17.60
2023-04-06T11:34:14.356Z,17.15
2023-04-06T11:36:43.669Z,17.47
2023-04-06T11:39:12.147Z,17.82
2023-04-06T11:41:41.687Z,17.51
2023-04-06T11:44:09.790Z,17.82
2023-04-06T11:46:37.635Z,18.17
2023-04-06T11:49:05.671Z,18.23
2023-04-06T11:51:37.984Z,18.27
2023-04-06T11:54:05.918Z,17.83
2023-04-06T11:56:33.780Z,18.74
2023-04-06T11:59:02.977Z,18.52
2023-04-06T12:01:34.115Z,18.89
2023-04-06T12:04:04.968Z,19.36
2023-04-06T12:06:32.808Z,19.81
2023-04-06T12:09:00.743Z,19.71
2023-04-06T12:11:28.650Z,19.07
2023-04-06T12:13:56.397Z,19.27
2023-04-06T12:16:25.602Z,19.53
2023-04-06T12:18:53.556Z,19.34
2023-04-06T12:21:21.383Z,18.97
2023-04-06T12:23:49.158Z,19.19
2023-04-06T12:26:16.966Z,19.45
2023-04-06T12:28:45.724Z,19.09
2023-04-06T12:31:17.408Z,19.38
2023-04-06T12:33:48.930Z,18.98
2023-04-06T12:36:20.003Z,19.15
2023-04-06T12:38:49.343Z,19.38
2023-04-06T12:41:17.454Z,19.68
2023-04-06T12:43:46.118Z,19.69
2023-04-06T12:46:14.062Z,19.05
2023-04-06T12:48:42.150Z,19.08
2023-04-06T12:51:11.660Z,19.41
2023-04-06T12:53:39.637Z,19.57
2023-04-06T12:56:14.077Z,19.74
2023-04-06T12:58:42.758Z,18.25
2023-04-06T13:01:11.737Z,18.24
2023-04-06T13:03:39.698Z,18.09
2023-04-06T13:06:09.235Z,17.61
2023-04-06T13:08:39.570Z,17.34
2023-04-06T13:11:09.823Z,16.47
2023-04-06T13:13:38.604Z,16.75
2023-04-06T13:16:08.583Z,17.37
2023-04-06T13:18:39.299Z,17.89
2023-04-06T13:21:07.758Z,17.79
2023-04-06T13:23:35.802Z,17.72
2023-04-06T13:26:06.577Z,17.57
2023-04-06T13:28:36.379Z,17.48
2023-04-06T13:31:04.632Z,16.90
2023-04-06T13:33:33.531Z,16.87
2023-04-06T13:36:01.868Z,16.54
2023-04-06T13:38:29.835Z,16.36
2023-04-06T13:40:57.822Z,16.02
2023-04-06T13:43:27.955Z,15.48
2023-04-06T13:45:57.058Z,15.78
2023-04-06T13:48:25.250Z,16.24
2023-04-06T13:50:53.062Z,16.57
2023-04-06T13:53:20.751Z,15.94
2023-04-06T13:55:55.028Z,15.63
2023-04-06T13:58:22.875Z,15.57
2023-04-06T14:00:52.099Z,15.69
2023-04-06T14:03:20.561Z,15.35
2023-04-06T14:05:48.549Z,15.34
2023-04-06T14:08:16.328Z,15.30
2023-04-06T14:10:44.128Z,15.42
2023-04-06T14:13:12.754Z,15.02
2023-04-06T14:15:40.713Z,15.41
2023-04-06T14:18:09.871Z,15.64
2023-04-06T14:20:37.623Z,15.47
2023-04-06T14:23:05.861Z,15.46
2023-04-06T14:25:35.461Z,15.45
2023-04-06T14:28:03.421Z,15.51
2023-04-06T14:30:32.187Z,15.49
2023-04-06T14:33:00.748Z,15.67
2023-04-06T14:35:31.589Z,15.83
2023-04-06T14:37:59.302Z,15.75
2023-04-06T14:40:27.224Z,15.52
2023-04-06T14:42:56.605Z,15.76
2023-04-06T14:45:24.639Z,16.20
2023-04-06T14:47:52.535Z,16.16
2023-04-06T14:50:20.389Z,16.28
2023-04-06T14:52:49.390Z,15.59
2023-04-06T14:55:17.264Z,15.38
2023-04-06T14:57:44.959Z,15.41
2023-04-06T15:00:14.465Z,15.14
2023-04-06T15:02:44.215Z,14.77
2023-04-06T15:05:12.211Z,14.16
2023-04-06T15:07:39.890Z,14.13
2023-04-06T15:10:12.274Z,14.02
2023-04-06T15:12:40.285Z,14.05
2023-04-06T15:15:08.857Z,13.92
2023-04-06T15:17:36.610Z,13.81
2023-04-06T15:20:04.600Z,13.73
2023-04-06T15:22:32.316Z,13.57
2023-04-06T15:24:59.994Z,13.59
2023-04-06T15:27:29.111Z,13.26
2023-04-06T15:29:56.914Z,13.44
2023-04-06T15:32:24.589Z,13.36
2023-04-06T15:34:52.340Z,13.41
2023-04-06T15:37:20.174Z,13.07
2023-04-06T15:39:47.931Z,12.75
2023-04-06T15:42:15.881Z,12.83
2023-04-06T15:44:44.951Z,12.84
2023-04-06T15:47:12.781Z,12.66
2023-04-06T15:49:40.519Z,12.74
2023-04-06T15:52:08.234Z,12.77
2023-04-06T15:54:36.500Z,12.58
2023-04-06T15:57:04.250Z,12.65
2023-04-06T15:59:31.923Z,12.77
2023-04-06T16:02:01.047Z,12.73
2023-04-06T16:04:29.179Z,12.74
2023-04-06T16:06:56.937Z,12.78
2023-04-06T16:09:24.676Z,12.66
2023-04-06T16:11:52.414Z,12.70
2023-04-06T16:14:21.835Z,12.68
2023-04-06T16:16:50.305Z,12.55
2023-04-06T16:19:19.564Z,12.47
2023-04-06T16:21:47.583Z,12.59
2023-04-06T16:24:15.346Z,12.18
2023-04-06T16:26:44.337Z,12.37
2023-04-06T16:29:12.053Z,12.36
2023-04-06T16:31:39.757Z,12.36
2023-04-06T16:34:07.544Z,12.24
2023-04-06T16:36:37.594Z,12.05
2023-04-06T16:39:05.370Z,12.01
2023-04-06T16:41:33.100Z,11.81
2023-04-06T16:44:00.907Z,11.79
2023-04-06T16:46:32.104Z,11.67
2023-04-06T16:49:00.182Z,11.59
2023-04-06T16:51:28.243Z,11.57
2023-04-06T16:53:57.279Z,11.56
2023-04-06T16:56:24.968Z,11.62
2023-04-06T16:58:52.833Z,11.50
2023-04-06T17:01:21.206Z,11.48
2023-04-06T17:03:49.407Z,11.39
2023-04-06T17:06:17.281Z,11.38
2023-04-06T17:08:45.895Z,11.27
2023-04-06T17:11:18.668Z,11.17
2023-04-06T17:13:50.387Z,11.02
2023-04-06T17:16:19.496Z,10.94
2023-04-06T17:18:47.298Z,10.76
2023-04-06T17:21:16.947Z,10.84
2023-04-06T17:23:44.995Z,10.85
2023-04-06T17:26:13.147Z,10.62
2023-04-06T17:28:42.250Z,10.59
2023-04-06T17:31:11.174Z,10.58
2023-04-06T17:33:39.100Z,10.62
2023-04-06T17:36:09.688Z,10.70
2023-04-06T17:38:38.377Z,10.64
2023-04-06T17:41:07.580Z,10.49
2023-04-06T17:43:35.315Z,10.52
2023-04-06T17:46:04.461Z,10.42
2023-04-06T17:48:32.627Z,10.43
2023-04-06T17:51:00.423Z,10.36
2023-04-06T17:53:30.546Z,10.47
2023-04-06T17:55:58.251Z,10.45
2023-04-06T17:58:26.320Z,10.40
2023-04-06T18:00:54.187Z,10.29
2023-04-06T18:03:23.253Z,10.34
2023-04-06T18:05:51.676Z,10.38
2023-04-06T18:08:19.339Z,10.25
2023-04-06T18:10:48.371Z,10.20
2023-04-06T18:13:16.176Z,10.31
2023-04-06T18:15:43.887Z,10.15
2023-04-06T18:18:11.649Z,10.06
2023-04-06T18:20:42.299Z,9.96
2023-04-06T18:23:09.975Z,9.85
2023-04-06T18:25:39.624Z,9.82
2023-04-06T18:28:07.571Z,9.86
2023-04-06T18:30:35.580Z,9.83
2023-04-06T18:33:04.108Z,9.82
2023-04-06T18:35:31.981Z,9.80
2023-04-06T18:38:01.269Z,9.82
2023-04-06T18:40:33.900Z,9.81
2023-04-06T18:43:02.001Z,9.83
2023-04-06T18:45:29.710Z,9.77
2023-04-06T18:47:58.001Z,9.73
2023-04-06T18:50:25.847Z,9.57
2023-04-06T18:52:53.836Z,9.78
2023-04-06T18:55:23.059Z,9.95
2023-04-06T18:57:50.895Z,9.54
2023-04-06T19:00:19.027Z,9.59
2023-04-06T19:02:47.345Z,9.63
2023-04-06T19:05:15.291Z,9.57
2023-04-06T19:07:43.148Z,10.01
2023-04-06T19:10:12.595Z,10.11
2023-04-06T19:12:41.734Z,10.04
2023-04-06T19:15:10.715Z,9.95
2023-04-06T19:17:39.294Z,9.92
2023-04-06T19:20:08.290Z,9.93
2023-04-06T19:22:36.786Z,10.04
2023-04-06T19:25:04.826Z,9.99
2023-04-06T19:27:32.579Z,10.06
2023-04-06T19:30:01.844Z,9.94
2023-04-06T19:32:30.209Z,9.98
2023-04-06T19:34:59.535Z,9.93
2023-04-06T19:37:27.265Z,9.87
2023-04-06T19:39:55.091Z,9.71
2023-04-06T19:42:23.092Z,9.77
2023-04-06T19:44:50.774Z,9.73
2023-04-06T19:47:19.939Z,9.85
2023-04-06T19:49:47.687Z,9.70
2023-04-06T19:52:15.456Z,9.66
2023-04-06T19:54:44.043Z,9.67
2023-04-06T19:57:12.063Z,9.69
2023-04-06T19:59:39.908Z,9.71
2023-04-06T20:02:08.292Z,9.69
2023-04-06T20:04:37.652Z,9.58
2023-04-06T20:07:05.402Z,9.56
2023-04-06T20:09:33.087Z,9.49
2023-04-06T20:12:01.530Z,9.42
2023-04-06T20:14:30.546Z,9.58
2023-04-06T20:16:58.409Z,9.53
2023-04-06T20:19:26.240Z,9.44
2023-04-06T20:21:55.651Z,9.44
2023-04-06T20:24:23.544Z,9.57
2023-04-06T20:26:52.888Z,9.54
2023-04-06T20:29:20.690Z,9.49
2023-04-06T20:31:48.429Z,9.63
2023-04-06T20:34:16.493Z,9.78
2023-04-06T20:36:45.243Z,9.61
2023-04-06T20:39:14.463Z,9.54
2023-04-06T20:41:42.403Z,9.62
2023-04-06T20:44:10.292Z,9.43
2023-04-06T20:46:38.100Z,9.58
2023-04-06T20:49:06.190Z,9.80
2023-04-06T20:51:33.883Z,9.51
2023-04-06T20:54:01.780Z,9.53
2023-04-06T20:56:30.843Z,9.62
2023-04-06T20:58:59.716Z,9.54
2023-04-06T21:01:29.214Z,9.56
2023-04-06T21:03:57.153Z,9.64
2023-04-06T21:06:27.398Z,9.84
2023-04-06T21:08:55.373Z,9.58
2023-04-06T21:11:23.179Z,9.11
2023-04-06T21:13:52.300Z,9.82
2023-04-06T21:16:20.780Z,9.79
2023-04-06T21:18:48.626Z,9.67
2023-04-06T21:21:16.414Z,9.74
2023-04-06T21:23:44.188Z,9.25
2023-04-06T21:26:13.381Z,9.16
2023-04-06T21:28:41.129Z,9.20
2023-04-06T21:31:10.254Z,9.61
2023-04-06T21:33:37.974Z,9.97
2023-04-06T21:36:06.873Z,10.29
2023-04-06T21:38:36.127Z,10.16
2023-04-06T21:41:03.893Z,10.15
2023-04-06T21:43:31.699Z,10.18
2023-04-06T21:45:59.623Z,10.13
2023-04-06T21:48:28.655Z,9.71
2023-04-06T21:50:56.386Z,9.65
2023-04-06T21:53:24.185Z,9.68
2023-04-06T21:55:51.937Z,9.68
2023-04-06T21:58:19.710Z,9.62
2023-04-06T22:00:47.539Z,9.52
2023-04-06T22:03:15.429Z,9.66
2023-04-06T22:05:44.677Z,9.68
2023-04-06T22:08:17.840Z,9.47
2023-04-06T22:10:53.583Z,10.03
2023-04-06T22:13:21.343Z,9.77
2023-04-06T22:15:49.165Z,9.64
2023-04-06T22:18:16.913Z,10.11
2023-04-06T22:20:47.087Z,9.88
2023-04-06T22:23:14.813Z,9.89
2023-04-06T22:25:42.604Z,9.83
2023-04-06T22:28:10.352Z,9.82
2023-04-06T22:30:38.066Z,9.38
2023-04-06T22:33:05.950Z,9.36
2023-04-06T22:35:33.906Z,9.31
2023-04-06T22:38:02.998Z,9.19
2023-04-06T22:40:30.864Z,9.81
2023-04-06T22:42:58.600Z,10.04
2023-04-06T22:45:26.848Z,10.06
2023-04-06T22:47:54.712Z,9.41
2023-04-06T22:50:22.947Z,9.15
2023-04-06T22:52:50.818Z,9.21
2023-04-06T22:55:19.854Z,9.18
2023-04-06T22:57:47.625Z,9.13
2023-04-06T23:00:16.310Z,9.42
2023-04-06T23:02:44.273Z,9.74
2023-04-06T23:05:12.215Z,9.79
2023-04-06T23:07:39.874Z,9.96
2023-04-06T23:10:08.809Z,9.92
2023-04-06T23:12:37.974Z,9.86
2023-04-06T23:15:06.401Z,10.04
2023-04-06T23:17:34.251Z,10.01
2023-04-06T23:20:02.035Z,10.06
2023-04-06T23:22:29.792Z,9.99
2023-04-06T23:24:57.495Z,9.97
2023-04-06T23:27:25.495Z,9.97
2023-04-06T23:29:55.606Z,9.87
2023-04-06T23:32:23.361Z,9.91
2023-04-06T23:34:51.132Z,10.07
2023-04-06T23:37:18.907Z,10.24
2023-04-06T23:39:48.404Z,10.05
2023-04-06T23:42:16.191Z,9.95
2023-04-06T23:44:43.958Z,9.80
2023-04-06T23:47:13.008Z,9.87
2023-04-06T23:49:40.730Z,10.03
2023-04-06T23:52:08.489Z,10.02
2023-04-06T23:54:36.361Z,10.03
2023-04-06T23:57:04.381Z,9.71
2023-04-06T23:59:32.109Z,9.89
